Time;durP1;ratioP1;P1;durP2;ratioP2;P2;SDS_P1;SDS_P2;PMS_P1;PMS_P2;Temp;Humidity;BMP_temperature;BMP_pressure;BME280_temperature;BME280_humidity;BME280_pressure;Samples;Min_cycle;Max_cycle;Signal;HPM_P1;HPM_P2
2022/02/16 00:00:15;;;;;;;1.48;1.00;;;;;;;;;;5123457;27;20616;-81
2022/02/16 00:02:42;;;;;;;1.17;1.00;;;;;;;;;;5124965;27;20202;-81
2022/02/16 00:05:12;;;;;;;1.73;1.10;;;;;;;;;;5129600;27;20494;-82
2022/02/16 00:07:40;;;;;;;1.35;1.00;;;;;;;;;;5129017;27;20202;-82
2022/02/16 00:10:07;;;;;;;1.10;1.00;;;;;;;;;;5128317;27;20269;-82
2022/02/16 00:12:35;;;;;;;1.50;1.08;;;;;;;;;;5130170;27;20311;-82
2022/02/16 00:15:02;;;;;;;1.00;0.90;;;;;;;;;;5126802;27;20192;-85
2022/02/16 00:17:29;;;;;;;1.10;1.00;;;;;;;;;;5121122;27;20202;-83
2022/02/16 00:19:56;;;;;;;4.40;1.23;;;;;;;;;;5126103;27;20461;-82
2022/02/16 00:22:25;;;;;;;0.97;0.87;;;;;;;;;;5127805;27;20800;-82
2022/02/16 00:24:52;;;;;;;3.00;1.17;;;;;;;;;;5127130;27;20814;-84
2022/02/16 00:27:19;;;;;;;1.17;1.00;;;;;;;;;;5127569;27;20199;-84
2022/02/16 00:29:46;;;;;;;1.93;0.90;;;;;;;;;;5131377;27;20453;-83
2022/02/16 00:32:14;;;;;;;1.77;0.90;;;;;;;;;;5122664;27;20473;-80
2022/02/16 00:34:41;;;;;;;2.28;1.02;;;;;;;;;;5119644;27;20450;-80
2022/02/16 00:37:08;;;;;;;1.23;1.00;;;;;;;;;;5121582;27;20200;-82
2022/02/16 00:39:37;;;;;;;1.63;0.90;;;;;;;;;;5136181;27;20203;-82
2022/02/16 00:42:04;;;;;;;1.50;0.93;;;;;;;;;;5129798;27;20576;-83
2022/02/16 00:44:31;;;;;;;1.00;0.90;;;;;;;;;;5129442;28;20617;-82
2022/02/16 00:46:58;;;;;;;1.40;0.90;;;;;;;;;;5129424;28;20453;-84
2022/02/16 00:49:25;;;;;;;1.15;0.95;;;;;;;;;;5132003;28;20202;-80
2022/02/16 00:51:53;;;;;;;0.88;0.80;;;;;;;;;;5130047;28;20223;-84
2022/02/16 00:54:21;;;;;;;2.10;0.80;;;;;;;;;;5127634;28;20192;-85
2022/02/16 00:56:49;;;;;;;1.00;0.75;;;;;;;;;;5124364;28;20465;-84
2022/02/16 00:59:16;;;;;;;5.20;0.90;;;;;;;;;;5126371;27;20192;-84
2022/02/16 01:01:43;;;;;;;1.90;0.87;;;;;;;;;;5127680;28;20242;-80
2022/02/16 01:04:10;;;;;;;1.13;0.80;;;;;;;;;;5129974;28;20518;-85
2022/02/16 01:06:38;;;;;;;2.10;0.90;;;;;;;;;;5141135;27;20203;-81
2022/02/16 01:09:05;;;;;;;0.95;0.85;;;;;;;;;;5150994;27;20203;-86
2022/02/16 01:11:32;;;;;;;1.90;0.90;;;;;;;;;;5113898;27;20232;-85
2022/02/16 01:14:00;;;;;;;1.40;1.13;;;;;;;;;;5111295;28;20218;-83
2022/02/16 01:16:27;;;;;;;2.03;0.90;;;;;;;;;;5118142;28;20198;-85
2022/02/16 01:18:54;;;;;;;1.35;0.70;;;;;;;;;;5119656;28;20207;-81
2022/02/16 01:21:22;;;;;;;1.35;0.85;;;;;;;;;;5118657;28;20215;-82
2022/02/16 01:23:49;;;;;;;0.80;0.70;;;;;;;;;;5129575;28;20566;-84
2022/02/16 01:26:17;;;;;;;1.00;0.70;;;;;;;;;;5129624;28;20461;-81
2022/02/16 01:28:44;;;;;;;0.90;0.70;;;;;;;;;;5127512;28;20200;-84
2022/02/16 01:31:13;;;;;;;2.45;0.80;;;;;;;;;;5128594;28;20811;-82
2022/02/16 01:33:40;;;;;;;0.80;0.60;;;;;;;;;;5110353;28;20192;-81
2022/02/16 01:36:07;;;;;;;0.80;0.70;;;;;;;;;;5122116;28;20532;-82
2022/02/16 01:38:35;;;;;;;0.90;0.70;;;;;;;;;;5117889;28;20231;-79
2022/02/16 01:41:03;;;;;;;0.80;0.70;;;;;;;;;;5126850;28;20505;-80
2022/02/16 01:43:30;;;;;;;1.10;0.80;;;;;;;;;;5112010;27;20437;-79
2022/02/16 01:45:57;;;;;;;0.80;0.80;;;;;;;;;;5130730;27;20461;-81
2022/02/16 01:48:26;;;;;;;1.20;0.90;;;;;;;;;;5133430;27;20456;-84
2022/02/16 01:50:54;;;;;;;0.80;0.70;;;;;;;;;;5133255;27;20981;-82
2022/02/16 01:53:21;;;;;;;1.20;0.80;;;;;;;;;;5129595;27;20514;-84
2022/02/16 01:55:48;;;;;;;0.80;0.70;;;;;;;;;;5124874;27;20433;-79
2022/02/16 01:58:16;;;;;;;0.80;0.70;;;;;;;;;;5129146;27;21481;-80
2022/02/16 02:00:43;;;;;;;0.90;0.75;;;;;;;;;;5113777;27;20534;-84
2022/02/16 02:03:10;;;;;;;1.35;0.70;;;;;;;;;;5132733;27;20211;-87
2022/02/16 02:05:40;;;;;;;1.10;0.80;;;;;;;;;;5130644;27;20188;-81
2022/02/16 02:08:07;;;;;;;0.80;0.80;;;;;;;;;;5130555;27;20198;-81
2022/02/16 02:10:35;;;;;;;1.00;0.77;;;;;;;;;;5130417;27;20454;-79
2022/02/16 02:13:02;;;;;;;1.20;0.80;;;;;;;;;;5122179;27;20482;-83
2022/02/16 02:15:29;;;;;;;0.80;0.70;;;;;;;;;;5122289;27;20461;-85
2022/02/16 02:17:57;;;;;;;0.80;0.70;;;;;;;;;;5131770;27;20192;-85
2022/02/16 02:20:27;;;;;;;1.40;0.70;;;;;;;;;;5130220;27;20554;-81
2022/02/16 02:22:55;;;;;;;1.20;0.70;;;;;;;;;;5128766;27;20462;-81
2022/02/16 02:25:23;;;;;;;1.00;0.70;;;;;;;;;;5126560;27;21005;-81
2022/02/16 02:27:52;;;;;;;1.00;0.70;;;;;;;;;;5129328;27;20603;-83
2022/02/16 02:30:20;;;;;;;1.07;0.80;;;;;;;;;;5120598;27;20450;-82
2022/02/16 02:32:49;;;;;;;1.17;0.70;;;;;;;;;;5114083;27;20481;-83
2022/02/16 02:35:16;;;;;;;0.80;0.70;;;;;;;;;;5111143;28;21062;-83
2022/02/16 02:37:45;;;;;;;0.90;0.80;;;;;;;;;;5110723;28;20438;-82
2022/02/16 02:40:12;;;;;;;1.10;0.80;;;;;;;;;;5112122;28;20458;-82
2022/02/16 02:42:43;;;;;;;1.77;0.80;;;;;;;;;;5124545;27;20463;-85
2022/02/16 02:45:11;;;;;;;1.57;1.07;;;;;;;;;;5111218;27;20465;-83
2022/02/16 02:47:39;;;;;;;0.83;0.73;;;;;;;;;;5105538;27;20437;-83
2022/02/16 02:50:06;;;;;;;0.90;0.80;;;;;;;;;;5124665;27;20460;-84
2022/02/16 02:52:36;;;;;;;0.90;0.80;;;;;;;;;;5130989;27;20485;-85
2022/02/16 02:55:04;;;;;;;0.90;0.80;;;;;;;;;;5131326;27;20448;-83
2022/02/16 02:57:31;;;;;;;1.17;0.70;;;;;;;;;;5129561;27;20465;-84
2022/02/16 02:59:58;;;;;;;1.23;1.00;;;;;;;;;;5132756;27;20461;-81
2022/02/16 03:02:26;;;;;;;0.83;0.70;;;;;;;;;;5128102;27;20950;-82
2022/02/16 03:04:53;;;;;;;2.13;0.80;;;;;;;;;;5133577;27;20438;-82
2022/02/16 03:07:20;;;;;;;1.10;0.90;;;;;;;;;;5131598;27;21420;-86
2022/02/16 03:09:47;;;;;;;1.80;0.70;;;;;;;;;;5122649;27;20461;-86
2022/02/16 03:12:16;;;;;;;0.90;0.80;;;;;;;;;;5125570;27;20481;-83
2022/02/16 03:14:43;;;;;;;0.87;0.77;;;;;;;;;;5126047;27;20462;-81
2022/02/16 03:17:11;;;;;;;0.90;0.80;;;;;;;;;;5127442;27;20445;-81
2022/02/16 03:19:38;;;;;;;0.80;0.77;;;;;;;;;;5131397;27;20810;-82
2022/02/16 03:22:06;;;;;;;1.20;0.80;;;;;;;;;;5129918;27;20544;-79
2022/02/16 03:24:34;;;;;;;0.80;0.70;;;;;;;;;;5129068;27;20868;-81
2022/02/16 03:27:01;;;;;;;0.90;0.70;;;;;;;;;;5127508;27;20552;-79
2022/02/16 03:29:30;;;;;;;0.90;0.80;;;;;;;;;;5131282;27;20433;-83
2022/02/16 03:31:57;;;;;;;0.73;0.67;;;;;;;;;;5116578;27;20477;-80
2022/02/16 03:34:24;;;;;;;0.73;0.70;;;;;;;;;;5120325;27;20433;-79
2022/02/16 03:36:51;;;;;;;0.77;0.67;;;;;;;;;;5130046;27;20441;-80
2022/02/16 03:39:18;;;;;;;2.20;0.90;;;;;;;;;;5123602;27;20465;-83
2022/02/16 03:41:46;;;;;;;0.80;0.70;;;;;;;;;;5122326;27;20456;-80
2022/02/16 03:44:13;;;;;;;0.80;0.70;;;;;;;;;;5130441;27;20457;-79
2022/02/16 03:46:43;;;;;;;1.30;0.90;;;;;;;;;;5123173;27;20489;-82
2022/02/16 03:49:11;;;;;;;1.00;0.80;;;;;;;;;;5111561;27;20450;-80
2022/02/16 03:51:38;;;;;;;1.00;0.80;;;;;;;;;;5125459;27;20457;-82
2022/02/16 03:54:05;;;;;;;0.80;0.70;;;;;;;;;;5111798;27;20481;-81
2022/02/16 03:56:32;;;;;;;0.80;0.80;;;;;;;;;;5128942;27;21057;-80
2022/02/16 03:58:59;;;;;;;0.73;0.67;;;;;;;;;;5130842;27;20902;-82
2022/02/16 04:01:26;;;;;;;2.70;0.70;;;;;;;;;;5104764;27;20530;-81
2022/02/16 04:03:58;;;;;;;1.17;0.70;;;;;;;;;;5107942;28;20462;-81
2022/02/16 04:06:25;;;;;;;0.80;0.60;;;;;;;;;;5099077;28;20471;-81
2022/02/16 04:08:52;;;;;;;0.70;0.60;;;;;;;;;;5103739;28;20943;-81
2022/02/16 04:11:26;;;;;;;0.70;0.60;;;;;;;;;;5103707;28;20470;-82
2022/02/16 04:13:55;;;;;;;1.57;0.70;;;;;;;;;;5107327;28;20585;-82
2022/02/16 04:16:22;;;;;;;1.97;0.80;;;;;;;;;;5106577;28;20443;-81
2022/02/16 04:18:49;;;;;;;2.80;1.10;;;;;;;;;;5090875;27;20441;-80
2022/02/16 04:21:18;;;;;;;1.60;0.70;;;;;;;;;;5114677;27;20482;-83
2022/02/16 04:23:45;;;;;;;1.07;0.70;;;;;;;;;;5104585;28;20569;-81
2022/02/16 04:26:13;;;;;;;1.00;0.60;;;;;;;;;;5098960;28;20832;-82
2022/02/16 04:28:40;;;;;;;2.00;0.80;;;;;;;;;;5082303;28;20451;-82
2022/02/16 04:31:07;;;;;;;1.00;0.70;;;;;;;;;;5108141;27;20735;-79
2022/02/16 04:33:34;;;;;;;3.43;0.70;;;;;;;;;;5112614;27;20485;-80
2022/02/16 04:36:01;;;;;;;1.13;0.70;;;;;;;;;;5111207;28;20435;-83
2022/02/16 04:38:30;;;;;;;0.80;0.80;;;;;;;;;;5108617;28;20454;-82
2022/02/16 04:40:57;;;;;;;1.10;0.70;;;;;;;;;;5097062;28;20494;-79
2022/02/16 04:43:24;;;;;;;0.80;0.63;;;;;;;;;;5101135;28;20449;-80
2022/02/16 04:45:51;;;;;;;0.70;0.60;;;;;;;;;;5108710;28;20457;-81
2022/02/16 04:48:21;;;;;;;0.80;0.70;;;;;;;;;;5108381;28;20465;-81
2022/02/16 04:50:48;;;;;;;0.90;0.63;;;;;;;;;;5107493;28;20458;-81
2022/02/16 04:53:15;;;;;;;0.80;0.63;;;;;;;;;;5109214;28;21012;-80
2022/02/16 04:55:43;;;;;;;0.80;0.70;;;;;;;;;;5105822;28;21061;-80
2022/02/16 04:58:10;;;;;;;0.80;0.60;;;;;;;;;;5096241;28;20438;-85
2022/02/16 05:00:37;;;;;;;0.83;0.70;;;;;;;;;;5094447;28;21001;-85
2022/02/16 05:03:05;;;;;;;0.80;0.67;;;;;;;;;;5107468;28;20462;-81
2022/02/16 05:05:32;;;;;;;0.80;0.63;;;;;;;;;;5109501;28;20453;-80
2022/02/16 05:07:59;;;;;;;0.70;0.60;;;;;;;;;;5109421;28;20430;-82
2022/02/16 05:10:26;;;;;;;3.00;0.70;;;;;;;;;;5108229;28;21134;-84
2022/02/16 05:12:54;;;;;;;1.20;0.70;;;;;;;;;;5107137;28;20483;-81
2022/02/16 05:15:22;;;;;;;0.70;0.60;;;;;;;;;;5111218;28;20445;-84
2022/02/16 05:17:49;;;;;;;0.90;0.70;;;;;;;;;;5110967;28;20438;-83
2022/02/16 05:20:16;;;;;;;0.80;0.70;;;;;;;;;;5105525;28;20481;-85
2022/02/16 05:22:43;;;;;;;1.30;0.80;;;;;;;;;;5108242;28;20439;-82
2022/02/16 05:25:11;;;;;;;0.80;0.70;;;;;;;;;;5113294;28;20465;-81
2022/02/16 05:27:38;;;;;;;0.80;0.70;;;;;;;;;;5114171;28;20437;-79
2022/02/16 05:30:07;;;;;;;0.90;0.70;;;;;;;;;;5113203;28;20465;-82
2022/02/16 05:32:34;;;;;;;0.80;0.70;;;;;;;;;;5112924;28;20489;-81
2022/02/16 05:35:01;;;;;;;1.90;0.70;;;;;;;;;;5102981;28;20469;-81
2022/02/16 05:37:28;;;;;;;1.00;0.80;;;;;;;;;;5094544;28;20436;-78
2022/02/16 05:39:56;;;;;;;1.33;0.83;;;;;;;;;;5096686;28;20481;-79
2022/02/16 05:42:23;;;;;;;0.80;0.70;;;;;;;;;;5106606;28;20966;-82
2022/02/16 05:44:50;;;;;;;1.20;0.80;;;;;;;;;;5103355;28;20430;-83
2022/02/16 05:47:21;;;;;;;1.20;0.77;;;;;;;;;;5106668;28;20453;-81
2022/02/16 05:49:48;;;;;;;0.80;0.70;;;;;;;;;;5110495;28;20458;-81
2022/02/16 05:52:16;;;;;;;0.90;0.70;;;;;;;;;;5112085;28;20434;-79
2022/02/16 05:54:43;;;;;;;1.00;0.80;;;;;;;;;;5111689;28;20482;-79
2022/02/16 05:57:11;;;;;;;0.83;0.67;;;;;;;;;;5109781;28;20899;-83
2022/02/16 05:59:39;;;;;;;1.10;0.80;;;;;;;;;;5102743;28;20513;-79
2022/02/16 06:02:07;;;;;;;0.90;0.70;;;;;;;;;;5105889;28;20931;-83
2022/02/16 06:04:35;;;;;;;0.90;0.80;;;;;;;;;;5107883;28;20464;-80
2022/02/16 06:07:03;;;;;;;1.10;0.97;;;;;;;;;;5111269;28;20799;-78
2022/02/16 06:09:30;;;;;;;0.90;0.70;;;;;;;;;;5110563;28;20450;-79
2022/02/16 06:11:57;;;;;;;0.80;0.70;;;;;;;;;;5108209;28;20812;-84
2022/02/16 06:14:24;;;;;;;1.10;0.80;;;;;;;;;;5107022;28;20482;-79
2022/02/16 06:16:51;;;;;;;0.80;0.67;;;;;;;;;;5098706;28;20451;-78
2022/02/16 06:19:19;;;;;;;0.80;0.60;;;;;;;;;;5103272;28;20508;-80
2022/02/16 06:21:47;;;;;;;1.17;0.80;;;;;;;;;;5111534;28;20439;-80
2022/02/16 06:24:14;;;;;;;0.80;0.70;;;;;;;;;;5109570;28;21006;-79
2022/02/16 06:26:42;;;;;;;1.60;0.90;;;;;;;;;;5109392;28;20478;-79
2022/02/16 06:29:09;;;;;;;1.00;0.70;;;;;;;;;;5110319;28;20458;-82
2022/02/16 06:31:36;;;;;;;1.10;0.80;;;;;;;;;;5112037;28;20801;-80
2022/02/16 06:34:04;;;;;;;0.90;0.70;;;;;;;;;;5105427;28;20478;-80
2022/02/16 06:36:31;;;;;;;0.80;0.70;;;;;;;;;;5103027;28;20809;-80
2022/02/16 06:38:59;;;;;;;1.17;0.80;;;;;;;;;;5093723;28;20432;-82
2022/02/16 06:41:28;;;;;;;0.80;0.70;;;;;;;;;;5092585;28;20465;-79
2022/02/16 06:43:55;;;;;;;1.00;0.70;;;;;;;;;;5104015;28;20539;-81
2022/02/16 06:46:22;;;;;;;1.37;0.80;;;;;;;;;;5110180;28;20438;-78
2022/02/16 06:48:50;;;;;;;1.80;1.37;;;;;;;;;;5109383;28;20803;-76
2022/02/16 06:51:20;;;;;;;0.90;0.80;;;;;;;;;;5107545;28;20461;-81
2022/02/16 06:53:55;;;;;;;1.00;0.90;;;;;;;;;;5101570;28;20477;-79
2022/02/16 06:56:24;;;;;;;1.30;0.80;;;;;;;;;;5105739;27;20453;-79
2022/02/16 06:58:51;;;;;;;1.40;1.10;;;;;;;;;;5100134;28;20450;-77
2022/02/16 07:01:18;;;;;;;1.10;0.90;;;;;;;;;;5120807;27;20559;-81
2022/02/16 07:03:45;;;;;;;1.53;1.10;;;;;;;;;;5125924;27;20938;-85
2022/02/16 07:06:12;;;;;;;1.37;1.27;;;;;;;;;;5130947;27;21004;-79
2022/02/16 07:08:39;;;;;;;0.80;0.70;;;;;;;;;;5128234;27;20466;-80
2022/02/16 07:11:06;;;;;;;1.00;0.90;;;;;;;;;;5119021;27;20486;-78
2022/02/16 07:13:35;;;;;;;0.90;0.83;;;;;;;;;;5136356;27;20989;-80
2022/02/16 07:16:02;;;;;;;0.90;0.70;;;;;;;;;;5130107;27;20445;-81
2022/02/16 07:18:32;;;;;;;0.90;0.73;;;;;;;;;;5129200;27;20461;-79
2022/02/16 07:20:59;;;;;;;0.80;0.70;;;;;;;;;;5126731;27;20827;-85
2022/02/16 07:23:26;;;;;;;1.00;0.90;;;;;;;;;;5127836;27;20446;-85
2022/02/16 07:25:53;;;;;;;0.80;0.70;;;;;;;;;;5130018;27;20453;-81
2022/02/16 07:28:20;;;;;;;0.90;0.80;;;;;;;;;;5132323;27;20429;-83
2022/02/16 07:30:49;;;;;;;0.80;0.70;;;;;;;;;;5130515;27;20462;-83
2022/02/16 07:33:17;;;;;;;0.90;0.70;;;;;;;;;;5123196;27;20578;-81
2022/02/16 07:35:44;;;;;;;0.80;0.70;;;;;;;;;;5109208;27;20448;-81
2022/02/16 07:38:11;;;;;;;0.80;0.70;;;;;;;;;;5126884;27;20951;-83
2022/02/16 07:40:38;;;;;;;0.90;0.60;;;;;;;;;;5118658;27;20458;-85
2022/02/16 07:43:06;;;;;;;1.30;0.80;;;;;;;;;;5113605;27;20442;-79
2022/02/16 07:45:33;;;;;;;0.90;0.70;;;;;;;;;;5129346;27;20446;-80
2022/02/16 07:48:01;;;;;;;0.80;0.70;;;;;;;;;;5123628;27;20465;-81
2022/02/16 07:50:29;;;;;;;1.10;0.80;;;;;;;;;;5129282;27;20470;-81
2022/02/16 07:52:59;;;;;;;0.80;0.70;;;;;;;;;;5106215;27;20456;-81
2022/02/16 07:55:27;;;;;;;0.90;0.60;;;;;;;;;;5118298;27;20807;-80
2022/02/16 07:57:58;;;;;;;0.80;0.70;;;;;;;;;;5093277;28;20433;-81
2022/02/16 08:00:25;;;;;;;0.80;0.70;;;;;;;;;;5117621;27;20465;-82
2022/02/16 08:02:52;;;;;;;0.70;0.60;;;;;;;;;;5128835;27;20433;-79
2022/02/16 08:05:23;;;;;;;0.80;0.70;;;;;;;;;;5130223;27;20448;-84
2022/02/16 08:07:50;;;;;;;1.10;0.80;;;;;;;;;;5126112;27;20926;-83
2022/02/16 08:10:17;;;;;;;1.90;0.80;;;;;;;;;;5128624;27;20461;-83
2022/02/16 08:12:45;;;;;;;1.00;0.80;;;;;;;;;;5127707;27;20456;-79
2022/02/16 08:15:17;;;;;;;0.90;0.70;;;;;;;;;;5121144;27;20481;-83
2022/02/16 08:17:44;;;;;;;3.40;0.80;;;;;;;;;;5124610;27;20485;-82
2022/02/16 08:20:12;;;;;;;0.80;0.80;;;;;;;;;;5127386;27;20831;-83
2022/02/16 08:22:40;;;;;;;1.13;0.90;;;;;;;;;;5125519;27;20461;-79
2022/02/16 08:25:08;;;;;;;1.63;0.90;;;;;;;;;;5129526;27;20479;-81
2022/02/16 08:27:37;;;;;;;1.60;1.20;;;;;;;;;;5131227;27;20769;-80
2022/02/16 08:30:04;;;;;;;2.13;1.40;;;;;;;;;;5122925;27;20564;-82
2022/02/16 08:32:32;;;;;;;2.73;1.50;;;;;;;;;;5123544;27;20429;-81
2022/02/16 08:34:59;;;;;;;1.63;1.37;;;;;;;;;;5126781;27;20485;-80
2022/02/16 08:37:27;;;;;;;1.77;1.00;;;;;;;;;;5127725;27;20436;-83
2022/02/16 08:39:55;;;;;;;2.17;1.10;;;;;;;;;;5127870;27;21024;-83
2022/02/16 08:42:23;;;;;;;1.57;1.30;;;;;;;;;;5129239;27;20441;-82
2022/02/16 08:44:51;;;;;;;2.77;1.20;;;;;;;;;;5127389;27;20553;-81
2022/02/16 08:47:18;;;;;;;1.33;1.00;;;;;;;;;;5126727;28;20470;-81
2022/02/16 08:49:45;;;;;;;1.47;1.37;;;;;;;;;;5124953;28;20442;-83
2022/02/16 08:52:16;;;;;;;1.80;0.90;;;;;;;;;;5128491;27;20834;-81
2022/02/16 08:54:43;;;;;;;2.40;1.03;;;;;;;;;;5132137;27;20476;-80
2022/02/16 08:57:12;;;;;;;2.03;1.10;;;;;;;;;;5131030;27;20449;-83
2022/02/16 08:59:39;;;;;;;2.70;1.00;;;;;;;;;;5134720;27;20461;-80
2022/02/16 09:02:06;;;;;;;1.63;1.30;;;;;;;;;;5116732;27;20440;-82
2022/02/16 09:04:34;;;;;;;3.77;1.03;;;;;;;;;;5130391;27;20462;-83
2022/02/16 09:09:43;;;;;;;1.60;1.00;;;;;;;;;;5131380;27;20452;-80
2022/02/16 09:12:14;;;;;;;2.50;1.00;;;;;;;;;;5124327;27;20564;-81
2022/02/16 09:17:47;;;;;;;1.97;1.10;;;;;;;;;;5052276;28;20465;-80
2022/02/16 09:20:15;;;;;;;1.17;0.87;;;;;;;;;;5125507;27;20500;-81
2022/02/16 09:22:42;;;;;;;1.17;1.00;;;;;;;;;;5130577;27;20454;-81
2022/02/16 09:25:14;;;;;;;1.80;1.20;;;;;;;;;;5128878;27;20937;-81
2022/02/16 09:27:42;;;;;;;1.00;0.90;;;;;;;;;;5133827;27;20441;-80
2022/02/16 09:30:10;;;;;;;1.83;1.10;;;;;;;;;;5115569;27;20457;-81
2022/02/16 09:32:38;;;;;;;1.93;1.00;;;;;;;;;;5133443;27;20441;-82
2022/02/16 09:35:05;;;;;;;4.37;2.70;;;;;;;;;;5116063;27;20546;-80
2022/02/16 09:37:33;;;;;;;2.53;1.80;;;;;;;;;;5134502;27;20457;-80
2022/02/16 09:40:00;;;;;;;2.03;1.40;;;;;;;;;;5134999;27;20908;-79
2022/02/16 09:42:27;;;;;;;2.37;1.20;;;;;;;;;;5136669;27;20777;-81
2022/02/16 09:44:57;;;;;;;1.33;1.00;;;;;;;;;;5130334;27;20476;-82
2022/02/16 09:47:25;;;;;;;2.53;1.90;;;;;;;;;;5128937;27;20942;-82
2022/02/16 09:49:53;;;;;;;1.87;1.40;;;;;;;;;;5129173;27;20480;-82
2022/02/16 09:52:20;;;;;;;2.30;0.90;;;;;;;;;;5133541;27;20437;-80
2022/02/16 09:54:50;;;;;;;3.30;1.60;;;;;;;;;;5132193;27;20846;-80
2022/02/16 09:57:17;;;;;;;1.23;0.90;;;;;;;;;;5133626;27;20477;-80
2022/02/16 09:59:44;;;;;;;1.43;1.00;;;;;;;;;;5132338;27;20473;-79
2022/02/16 10:02:13;;;;;;;2.03;1.40;;;;;;;;;;5136350;27;20783;-82
2022/02/16 10:04:42;;;;;;;2.57;1.70;;;;;;;;;;5133413;27;20468;-83
2022/02/16 10:07:22;;;;;;;6.17;3.10;;;;;;;;;;5112718;27;20946;-80
2022/02/16 10:09:49;;;;;;;3.77;2.50;;;;;;;;;;5108242;27;20469;-82
2022/02/16 10:12:16;;;;;;;1.43;1.30;;;;;;;;;;5123250;27;20432;-87
2022/02/16 10:14:44;;;;;;;5.60;3.30;;;;;;;;;;5151232;27;20472;-84
2022/02/16 10:17:20;;;;;;;4.00;2.70;;;;;;;;;;5130852;27;20453;-83
2022/02/16 10:19:48;;;;;;;3.40;2.90;;;;;;;;;;5129782;27;20821;-83
2022/02/16 10:22:18;;;;;;;7.90;4.47;;;;;;;;;;5132077;27;20453;-81
2022/02/16 10:24:45;;;;;;;3.50;1.87;;;;;;;;;;5107975;27;20461;-79
2022/02/16 10:27:13;;;;;;;1.77;1.20;;;;;;;;;;5124957;27;20442;-82
2022/02/16 10:29:41;;;;;;;2.83;1.93;;;;;;;;;;5128495;27;20492;-83
2022/02/16 10:32:09;;;;;;;1.43;1.23;;;;;;;;;;5128318;27;20520;-84
2022/02/16 10:34:51;;;;;;;2.60;1.80;;;;;;;;;;5129903;27;20876;-80
2022/02/16 10:37:20;;;;;;;4.10;3.00;;;;;;;;;;5110552;27;20465;-80
2022/02/16 10:40:02;;;;;;;3.67;1.80;;;;;;;;;;5125337;27;20576;-81
2022/02/16 10:42:30;;;;;;;2.50;1.63;;;;;;;;;;5107980;27;20726;-82
2022/02/16 10:45:08;;;;;;;2.70;1.93;;;;;;;;;;5126827;27;20438;-81
2022/02/16 10:47:50;;;;;;;4.27;2.50;;;;;;;;;;5129134;27;20435;-81
2022/02/16 10:50:17;;;;;;;3.23;2.07;;;;;;;;;;5124875;27;21006;-81
2022/02/16 10:52:51;;;;;;;2.57;1.87;;;;;;;;;;5128718;27;20731;-81
2022/02/16 10:55:18;;;;;;;2.83;2.33;;;;;;;;;;5124975;27;20489;-80
2022/02/16 10:57:45;;;;;;;4.00;2.30;;;;;;;;;;5126848;27;20446;-84
2022/02/16 11:00:13;;;;;;;2.27;1.80;;;;;;;;;;5123311;27;20882;-81
2022/02/16 11:02:41;;;;;;;3.00;2.20;;;;;;;;;;5126797;27;20446;-82
2022/02/16 11:05:09;;;;;;;2.53;1.70;;;;;;;;;;5109774;27;20849;-83
2022/02/16 11:07:37;;;;;;;1.60;1.33;;;;;;;;;;5130231;27;20432;-80
2022/02/16 11:10:07;;;;;;;3.07;1.80;;;;;;;;;;5127308;27;20482;-80
2022/02/16 11:12:34;;;;;;;3.20;2.63;;;;;;;;;;5107472;27;20500;-78
2022/02/16 11:15:02;;;;;;;2.07;1.37;;;;;;;;;;5125826;27;20569;-79
2022/02/16 11:17:29;;;;;;;1.50;1.20;;;;;;;;;;5124246;27;20465;-78
2022/02/16 11:20:11;;;;;;;3.30;1.70;;;;;;;;;;5130207;27;20960;-80
2022/02/16 11:22:48;;;;;;;3.00;1.33;;;;;;;;;;5111444;27;20447;-78
2022/02/16 11:25:28;;;;;;;5.03;1.60;;;;;;;;;;5128678;27;20930;-78
2022/02/16 11:27:55;;;;;;;2.20;1.50;;;;;;;;;;5127615;27;20433;-80
2022/02/16 11:30:30;;;;;;;2.87;1.50;;;;;;;;;;5124028;27;20466;-81
2022/02/16 11:33:10;;;;;;;2.77;1.73;;;;;;;;;;5125982;27;21307;-79
2022/02/16 11:35:45;;;;;;;1.50;1.13;;;;;;;;;;5125106;27;20827;-78
2022/02/16 11:38:15;;;;;;;1.50;1.03;;;;;;;;;;5128500;27;20454;-79
2022/02/16 11:40:44;;;;;;;1.27;0.90;;;;;;;;;;5114103;27;20553;-77
2022/02/16 11:43:12;;;;;;;2.40;1.10;;;;;;;;;;5129939;27;20441;-79
2022/02/16 11:45:41;;;;;;;2.90;1.50;;;;;;;;;;5111742;27;20463;-80
2022/02/16 11:48:09;;;;;;;3.53;1.00;;;;;;;;;;5123706;27;20464;-83
2022/02/16 11:50:38;;;;;;;1.50;1.20;;;;;;;;;;5111054;27;20464;-80
2022/02/16 11:53:06;;;;;;;2.13;1.13;;;;;;;;;;5131001;27;20825;-81
2022/02/16 11:55:34;;;;;;;3.00;1.40;;;;;;;;;;5124391;27;20485;-83
2022/02/16 11:58:15;;;;;;;1.30;1.10;;;;;;;;;;5105444;27;20457;-78
2022/02/16 12:00:43;;;;;;;1.27;1.13;;;;;;;;;;5109323;27;20475;-79
2022/02/16 12:03:13;;;;;;;3.03;1.30;;;;;;;;;;5123287;27;20546;-82
2022/02/16 12:05:41;;;;;;;1.87;1.20;;;;;;;;;;5109799;27;20563;-81
2022/02/16 12:08:16;;;;;;;1.87;1.20;;;;;;;;;;5127804;27;20444;-80
2022/02/16 12:10:44;;;;;;;1.53;0.97;;;;;;;;;;5128026;27;20473;-81
2022/02/16 12:13:12;;;;;;;2.70;1.50;;;;;;;;;;5130379;27;20448;-81
2022/02/16 12:15:40;;;;;;;2.30;1.30;;;;;;;;;;5127890;27;20501;-77
2022/02/16 12:18:12;;;;;;;3.70;1.30;;;;;;;;;;5123496;27;21021;-80
2022/02/16 12:20:40;;;;;;;1.30;1.03;;;;;;;;;;5122693;27;20540;-79
2022/02/16 12:23:07;;;;;;;2.57;1.30;;;;;;;;;;5126818;27;20442;-79
2022/02/16 12:25:35;;;;;;;2.23;1.70;;;;;;;;;;5107485;27;20461;-79
2022/02/16 12:28:03;;;;;;;1.80;1.03;;;;;;;;;;5126262;27;20441;-80
2022/02/16 12:30:35;;;;;;;0.90;0.70;;;;;;;;;;5128604;27;20465;-79
2022/02/16 12:33:04;;;;;;;1.07;0.90;;;;;;;;;;5124182;27;20488;-80
2022/02/16 12:35:31;;;;;;;1.00;0.90;;;;;;;;;;5106213;28;20473;-78
2022/02/16 12:37:58;;;;;;;1.00;0.87;;;;;;;;;;5122815;27;20437;-81
2022/02/16 12:40:26;;;;;;;1.27;1.00;;;;;;;;;;5122446;27;20486;-81
2022/02/16 12:42:55;;;;;;;1.43;1.20;;;;;;;;;;5125601;27;20559;-79
2022/02/16 12:45:24;;;;;;;2.07;1.00;;;;;;;;;;5125995;27;20814;-80
2022/02/16 12:47:58;;;;;;;1.70;1.20;;;;;;;;;;5128212;27;20437;-79
2022/02/16 12:50:29;;;;;;;1.97;1.10;;;;;;;;;;5125563;27;20553;-84
2022/02/16 12:52:58;;;;;;;4.33;3.43;;;;;;;;;;5123755;28;20430;-80
2022/02/16 12:55:26;;;;;;;2.67;1.80;;;;;;;;;;5123407;28;20474;-79
2022/02/16 12:57:54;;;;;;;2.57;1.83;;;;;;;;;;5128359;28;20442;-78
2022/02/16 13:03:04;;;;;;;4.33;2.57;;;;;;;;;;5129424;28;20421;-81
2022/02/16 13:05:41;;;;;;;4.33;2.80;;;;;;;;;;5131191;28;20437;-77
2022/02/16 13:08:09;;;;;;;2.70;1.43;;;;;;;;;;5110115;28;20463;-77
2022/02/16 13:10:37;;;;;;;2.37;1.73;;;;;;;;;;5122591;28;20477;-79
2022/02/16 13:13:15;;;;;;;3.53;2.13;;;;;;;;;;5113716;28;20434;-82
2022/02/16 13:15:45;;;;;;;5.40;2.37;;;;;;;;;;5129199;27;20499;-83
2022/02/16 13:18:12;;;;;;;3.70;2.63;;;;;;;;;;5125895;28;20444;-85
2022/02/16 13:20:42;;;;;;;6.67;4.10;;;;;;;;;;5128937;28;20875;-84
2022/02/16 13:23:14;;;;;;;5.47;3.50;;;;;;;;;;5126866;28;20456;-78
2022/02/16 13:25:43;;;;;;;7.43;3.90;;;;;;;;;;5128721;28;20460;-79
2022/02/16 13:28:11;;;;;;;3.47;2.00;;;;;;;;;;5120692;28;20447;-80
2022/02/16 13:30:39;;;;;;;3.80;2.23;;;;;;;;;;5118120;28;20874;-78
2022/02/16 13:33:14;;;;;;;8.23;4.73;;;;;;;;;;5100819;28;20438;-82
2022/02/16 13:35:44;;;;;;;7.20;3.73;;;;;;;;;;5107811;28;20476;-82
2022/02/16 13:38:20;;;;;;;5.67;3.03;;;;;;;;;;5104379;28;20461;-79
2022/02/16 13:40:49;;;;;;;5.00;3.27;;;;;;;;;;5113157;28;20465;-82
2022/02/16 13:43:20;;;;;;;5.73;3.23;;;;;;;;;;5114196;27;20439;-80
2022/02/16 13:45:49;;;;;;;9.00;4.37;;;;;;;;;;5135668;27;20802;-82
2022/02/16 13:48:23;;;;;;;14.77;7.83;;;;;;;;;;5136101;27;20531;-80
2022/02/16 13:50:53;;;;;;;15.60;5.50;;;;;;;;;;5113162;27;20799;-82
2022/02/16 13:53:27;;;;;;;15.03;6.70;;;;;;;;;;5109701;27;21289;-83
2022/02/16 13:55:54;;;;;;;10.13;3.70;;;;;;;;;;5106280;27;20960;-82
2022/02/16 13:58:25;;;;;;;13.30;5.57;;;;;;;;;;5134116;27;20551;-81
2022/02/16 14:01:00;;;;;;;7.47;4.10;;;;;;;;;;5133457;27;20983;-81
2022/02/16 14:03:27;;;;;;;22.43;5.77;;;;;;;;;;5130922;27;20453;-81
2022/02/16 14:05:56;;;;;;;13.93;6.27;;;;;;;;;;5131159;27;20547;-80
2022/02/16 14:08:23;;;;;;;11.67;4.77;;;;;;;;;;5129484;27;20430;-83
2022/02/16 14:10:50;;;;;;;32.53;7.10;;;;;;;;;;5135339;27;20464;-83
2022/02/16 14:13:17;;;;;;;16.93;5.37;;;;;;;;;;5127111;27;20444;-81
2022/02/16 14:15:44;;;;;;;8.50;4.43;;;;;;;;;;5125137;27;20499;-81
2022/02/16 14:18:12;;;;;;;9.90;4.33;;;;;;;;;;5121828;27;20457;-80
2022/02/16 14:20:39;;;;;;;7.83;2.83;;;;;;;;;;5132315;27;20845;-80
2022/02/16 14:23:07;;;;;;;7.80;3.07;;;;;;;;;;5131427;27;20456;-83
2022/02/16 14:25:34;;;;;;;11.97;3.17;;;;;;;;;;5126483;27;20463;-82
2022/02/16 14:28:02;;;;;;;7.20;3.30;;;;;;;;;;5131596;27;20449;-80
2022/02/16 14:30:29;;;;;;;10.63;3.00;;;;;;;;;;5131388;27;20466;-81
2022/02/16 14:32:56;;;;;;;9.03;2.80;;;;;;;;;;5123488;27;20533;-79
2022/02/16 14:35:23;;;;;;;5.03;2.43;;;;;;;;;;5110584;27;20666;-83
2022/02/16 14:37:50;;;;;;;3.00;1.90;;;;;;;;;;5132452;27;20447;-81
2022/02/16 14:40:19;;;;;;;6.10;2.67;;;;;;;;;;5135448;27;20467;-81
2022/02/16 14:42:47;;;;;;;5.80;2.43;;;;;;;;;;5114592;27;20447;-81
2022/02/16 14:45:15;;;;;;;4.13;2.33;;;;;;;;;;5133572;27;20437;-81
2022/02/16 14:47:46;;;;;;;4.23;2.00;;;;;;;;;;5127065;27;20518;-80
2022/02/16 14:50:13;;;;;;;3.57;1.83;;;;;;;;;;5106033;28;20491;-78
2022/02/16 14:52:43;;;;;;;2.90;1.37;;;;;;;;;;5131634;27;20570;-79
2022/02/16 14:55:13;;;;;;;2.70;1.87;;;;;;;;;;5126420;27;20496;-80
2022/02/16 14:57:42;;;;;;;4.70;2.07;;;;;;;;;;5152991;27;20801;-78